Foula, United Kingdom
Current Conditions -  °F | °C
As of 2:20 PM on Tuesday 21 Oct 2014 (Local Time) from EGPB Reporting Station
Light Rain Light Rain  
Wind Chill: 34°   Ceiling: 1300
Heat Index: 45°   Visibility: 4mi
Dew Point: 43°   Wind: 38mph
Humidity: 93%   Direction: 310°NW
Pressure: 29.09"   Gusts: NA
Location:  60.12°N, 2.07°W
Report Text: EGPB 211320Z 31033KT 6000 -RA FEW008 BKN013 07/06 Q0985 TEMPO 4000 RA BKN008
Loading
Personal Weather Stations






























Interactive Weather Map
Tropical Storm Tracking
New forecast layout! Learn more

10-Day Weather Forecast

Advertisements
Track Severe Weather on mobile